Time;durP1;ratioP1;P1;durP2;ratioP2;P2;SDS_P1;SDS_P2;PMS_P1;PMS_P2;Temp;Humidity;BMP_temperature;BMP_pressure;BME280_temperature;BME280_humidity;BME280_pressure;Samples;Min_cycle;Max_cycle;Signal;HPM_P1;HPM_P2
2024/01/10 00:00:31;;;;;;;50.88;38.30;;;;;;;-1.73;100.00;96511.69;5055619;28;20433;-67
2024/01/10 00:02:57;;;;;;;49.25;37.22;;;;;;;-1.68;100.00;96508.13;5054572;28;20424;-67
2024/01/10 00:05:22;;;;;;;42.75;34.03;;;;;;;-1.67;100.00;96509.81;5056226;28;20048;-67
2024/01/10 00:07:48;;;;;;;42.60;32.13;;;;;;;-1.63;100.00;96512.25;5045470;28;20386;-67
2024/01/10 00:10:13;;;;;;;51.45;39.40;;;;;;;-1.59;100.00;96502.69;5048788;28;20024;-67
2024/01/10 00:12:38;;;;;;;42.40;32.13;;;;;;;-1.62;100.00;96507.97;5055511;28;20025;-67
2024/01/10 00:15:04;;;;;;;42.13;32.03;;;;;;;-1.58;100.00;96507.81;5040294;28;20112;-67
2024/01/10 00:17:30;;;;;;;42.75;32.65;;;;;;;-1.53;100.00;96502.50;5043135;28;20096;-67
2024/01/10 00:19:55;;;;;;;38.50;30.80;;;;;;;-1.58;100.00;96504.38;5039516;28;20048;-67
2024/01/10 00:22:21;;;;;;;40.53;31.25;;;;;;;-1.61;100.00;96500.16;5054616;28;20040;-67
2024/01/10 00:24:46;;;;;;;40.15;31.10;;;;;;;-1.61;100.00;96507.91;5049253;28;20037;-67
2024/01/10 00:27:11;;;;;;;38.13;29.70;;;;;;;-1.66;100.00;96501.19;5049907;28;20485;-67
2024/01/10 00:29:37;;;;;;;40.30;31.77;;;;;;;-1.68;100.00;96496.06;5038050;28;20034;-67
2024/01/10 00:32:02;;;;;;;41.35;32.67;;;;;;;-1.63;100.00;96499.34;5051217;28;20025;-67
2024/01/10 00:34:28;;;;;;;39.38;32.53;;;;;;;-1.63;100.00;96503.69;5043510;28;20025;-67
2024/01/10 00:36:53;;;;;;;42.55;31.65;;;;;;;-1.59;100.00;96505.28;5057279;28;20049;-67
2024/01/10 00:39:18;;;;;;;41.10;32.75;;;;;;;-1.58;100.00;96494.06;5056878;28;20021;-67
2024/01/10 00:41:44;;;;;;;42.47;33.00;;;;;;;-1.60;100.00;96491.50;5053471;28;20049;-67
2024/01/10 00:44:09;;;;;;;43.78;32.30;;;;;;;-1.61;100.00;96487.25;5038554;28;20034;-67
2024/01/10 00:46:34;;;;;;;44.63;34.63;;;;;;;-1.62;100.00;96487.31;5045232;28;20111;-67
2024/01/10 00:49:00;;;;;;;45.50;31.38;;;;;;;-1.61;100.00;96483.81;5046135;28;20053;-67
2024/01/10 00:51:25;;;;;;;44.17;32.85;;;;;;;-1.67;100.00;96486.56;5054733;28;20093;-67
2024/01/10 00:53:50;;;;;;;44.85;33.80;;;;;;;-1.68;100.00;96484.88;5037607;28;20048;-67
2024/01/10 00:56:16;;;;;;;42.65;33.80;;;;;;;-1.66;100.00;96483.09;5053208;28;20104;-67
2024/01/10 00:58:42;;;;;;;37.85;30.70;;;;;;;-1.63;100.00;96480.44;5056425;28;20075;-67
2024/01/10 01:01:07;;;;;;;38.88;29.95;;;;;;;-1.61;100.00;96473.50;5056401;28;20036;-67
2024/01/10 01:03:32;;;;;;;38.42;32.13;;;;;;;-1.60;100.00;96485.50;5061013;28;20370;-67
2024/01/10 01:05:58;;;;;;;39.90;31.13;;;;;;;-1.58;100.00;96478.56;5053293;28;20112;-68
2024/01/10 01:08:23;;;;;;;38.25;28.92;;;;;;;-1.60;100.00;96476.00;5044494;28;20036;-67
2024/01/10 01:10:48;;;;;;;34.17;29.00;;;;;;;-1.60;100.00;96478.59;5053821;28;20033;-67
2024/01/10 01:13:14;;;;;;;38.22;30.35;;;;;;;-1.57;100.00;96472.50;5042645;28;20124;-67
2024/01/10 01:15:39;;;;;;;45.05;35.00;;;;;;;-1.56;100.00;96475.91;5053921;28;20037;-67
2024/01/10 01:18:05;;;;;;;48.75;38.95;;;;;;;-1.55;100.00;96475.88;5045045;28;20509;-68
2024/01/10 01:20:31;;;;;;;41.85;33.83;;;;;;;-1.53;100.00;96474.09;5056400;28;20035;-68
2024/01/10 01:22:56;;;;;;;38.10;30.73;;;;;;;-1.52;100.00;96468.03;5054230;28;20025;-68
2024/01/10 01:25:22;;;;;;;39.58;30.73;;;;;;;-1.52;100.00;96480.94;5054998;28;20028;-67
2024/01/10 01:27:47;;;;;;;37.17;28.55;;;;;;;-1.54;100.00;96474.16;5036161;28;20026;-67
2024/01/10 01:30:13;;;;;;;37.97;29.85;;;;;;;-1.52;100.00;96480.94;5049343;28;20079;-68
2024/01/10 01:32:38;;;;;;;37.38;28.02;;;;;;;-1.54;100.00;96476.75;5054698;28;20021;-67
2024/01/10 01:35:04;;;;;;;37.20;29.63;;;;;;;-1.56;100.00;96473.31;5052986;28;20067;-68
2024/01/10 01:37:29;;;;;;;38.17;29.75;;;;;;;-1.53;100.00;96478.44;5044991;28;20394;-67
2024/01/10 01:39:55;;;;;;;39.95;30.30;;;;;;;-1.53;100.00;96479.25;5051557;28;20030;-67
2024/01/10 01:42:20;;;;;;;43.20;30.70;;;;;;;-1.49;100.00;96478.25;5036072;28;20052;-67
2024/01/10 01:44:45;;;;;;;41.30;31.85;;;;;;;-1.49;100.00;96474.84;5048298;28;20416;-67
2024/01/10 01:47:11;;;;;;;40.72;31.88;;;;;;;-1.49;100.00;96480.84;5054098;28;20414;-67
2024/01/10 01:49:36;;;;;;;39.00;31.50;;;;;;;-1.51;100.00;96489.56;5046959;28;20031;-67
2024/01/10 01:52:02;;;;;;;44.20;31.40;;;;;;;-1.54;100.00;96485.31;5047180;28;20025;-67
2024/01/10 01:54:28;;;;;;;38.83;31.92;;;;;;;-1.59;100.00;96485.44;5050604;28;20033;-67
2024/01/10 01:56:54;;;;;;;44.97;33.63;;;;;;;-1.59;100.00;96492.38;5039477;28;20059;-67
2024/01/10 01:59:20;;;;;;;43.58;33.17;;;;;;;-1.60;100.00;96481.19;5052364;28;20386;-67
2024/01/10 02:01:45;;;;;;;44.33;34.05;;;;;;;-1.55;100.00;96486.22;5040165;28;20025;-67
2024/01/10 02:04:11;;;;;;;45.38;34.03;;;;;;;-1.59;100.00;96489.78;5052494;28;20445;-67
2024/01/10 02:06:37;;;;;;;48.22;35.05;;;;;;;-1.51;100.00;96497.31;5053539;28;20029;-67
2024/01/10 02:09:03;;;;;;;42.05;32.35;;;;;;;-1.49;100.00;96488.59;5046216;28;20670;-67
2024/01/10 02:11:29;;;;;;;41.53;31.90;;;;;;;-1.52;100.00;96487.88;5047901;28;20052;-67
2024/01/10 02:13:54;;;;;;;43.40;33.60;;;;;;;-1.56;100.00;96487.09;5037752;28;20458;-67
2024/01/10 02:16:22;;;;;;;45.15;33.70;;;;;;;-1.53;100.00;96481.84;5035882;28;20025;-67
2024/01/10 02:18:48;;;;;;;38.65;28.90;;;;;;;-1.47;100.00;96480.81;5049325;28;20088;-67
2024/01/10 02:21:13;;;;;;;41.85;31.58;;;;;;;-1.52;100.00;96483.53;5045268;28;20507;-67
2024/01/10 02:23:39;;;;;;;40.30;30.63;;;;;;;-1.50;100.00;96480.91;5053624;28;20067;-67
2024/01/10 02:26:05;;;;;;;37.75;31.42;;;;;;;-1.56;100.00;96479.34;5050312;28;20029;-67
2024/01/10 02:28:30;;;;;;;40.45;29.75;;;;;;;-1.58;100.00;96483.72;5050845;28;20037;-66
2024/01/10 02:30:57;;;;;;;40.83;30.05;;;;;;;-1.53;100.00;96479.25;5051702;28;20035;-67
2024/01/10 02:33:22;;;;;;;41.83;30.20;;;;;;;-1.48;100.00;96479.94;5050659;28;20056;-66
2024/01/10 02:35:48;;;;;;;41.75;31.35;;;;;;;-1.48;100.00;96473.94;5050681;28;20025;-67
2024/01/10 02:38:13;;;;;;;40.05;29.27;;;;;;;-1.56;100.00;96481.94;5052869;28;20032;-66
2024/01/10 02:40:38;;;;;;;38.80;31.67;;;;;;;-1.60;100.00;96467.44;5038480;28;20394;-66
2024/01/10 02:43:04;;;;;;;41.88;30.85;;;;;;;-1.61;100.00;96469.16;5047987;28;20033;-67
2024/01/10 02:45:29;;;;;;;42.00;31.67;;;;;;;-1.60;100.00;96470.03;5053325;28;20036;-67
2024/01/10 02:47:54;;;;;;;50.80;40.13;;;;;;;-1.60;100.00;96475.19;5052704;28;20049;-66
2024/01/10 02:50:20;;;;;;;46.65;33.60;;;;;;;-1.59;100.00;96475.13;5053166;28;20025;-67
2024/01/10 02:52:45;;;;;;;43.55;32.83;;;;;;;-1.59;100.00;96476.88;5053944;28;20021;-67
2024/01/10 02:55:11;;;;;;;42.80;30.92;;;;;;;-1.54;100.00;96474.16;5042989;28;20112;-67
2024/01/10 02:57:36;;;;;;;43.88;32.45;;;;;;;-1.58;100.00;96475.97;5023669;28;20025;-66
2024/01/10 03:00:04;;;;;;;42.58;33.53;;;;;;;-1.53;100.00;96474.09;5053535;28;20048;-67
2024/01/10 03:02:29;;;;;;;48.45;33.90;;;;;;;-1.53;100.00;96476.66;5053937;28;20128;-67
2024/01/10 03:04:55;;;;;;;44.67;33.03;;;;;;;-1.56;100.00;96475.91;5052387;28;20063;-67
2024/01/10 03:07:20;;;;;;;39.85;31.65;;;;;;;-1.54;100.00;96469.00;5054273;28;20474;-66
2024/01/10 03:09:46;;;;;;;46.33;33.65;;;;;;;-1.57;100.00;96462.16;5057166;28;20375;-67
2024/01/10 03:12:11;;;;;;;44.88;33.33;;;;;;;-1.59;100.00;96466.53;5056897;28;20083;-67
2024/01/10 03:14:37;;;;;;;41.67;32.85;;;;;;;-1.61;100.00;96469.16;5057991;28;20029;-67
2024/01/10 03:17:02;;;;;;;40.50;31.30;;;;;;;-1.60;100.00;96465.69;5058154;28;20035;-66
2024/01/10 03:19:28;;;;;;;43.20;32.80;;;;;;;-1.61;100.00;96464.00;5058016;28;20025;-67
2024/01/10 03:21:53;;;;;;;41.92;31.15;;;;;;;-1.60;100.00;96464.84;5057332;28;20078;-66
2024/01/10 03:24:19;;;;;;;44.75;32.67;;;;;;;-1.56;100.00;96466.44;5043201;28;20033;-67
2024/01/10 03:26:44;;;;;;;39.92;32.05;;;;;;;-1.56;100.00;96458.69;5058296;28;20056;-67
2024/01/10 03:29:10;;;;;;;42.67;33.42;;;;;;;-1.54;100.00;96462.06;5053257;28;20413;-67
2024/01/10 03:31:35;;;;;;;42.08;32.13;;;;;;;-1.44;100.00;96462.63;5049792;28;20397;-67
2024/01/10 03:34:01;;;;;;;42.22;31.42;;;;;;;-1.48;100.00;96459.28;5045048;28;20127;-67
2024/01/10 03:36:26;;;;;;;44.08;33.33;;;;;;;-1.50;100.00;96455.91;5058518;28;20035;-67
2024/01/10 03:38:52;;;;;;;45.25;34.22;;;;;;;-1.51;100.00;96446.47;5058248;28;20433;-67
2024/01/10 03:41:18;;;;;;;45.63;31.90;;;;;;;-1.52;100.00;96452.53;5058072;28;20057;-67
2024/01/10 03:43:44;;;;;;;42.47;32.05;;;;;;;-1.54;100.00;96449.16;5040349;28;20030;-67
2024/01/10 03:46:10;;;;;;;44.67;32.40;;;;;;;-1.52;100.00;96462.88;5049906;28;20999;-67
2024/01/10 03:48:36;;;;;;;44.60;34.22;;;;;;;-1.43;100.00;96450.56;5038380;28;20068;-67
2024/01/10 03:51:02;;;;;;;44.03;32.33;;;;;;;-1.42;100.00;96457.41;5042665;28;20033;-67
2024/01/10 03:53:28;;;;;;;40.58;32.85;;;;;;;-1.47;100.00;96462.72;5057105;28;20074;-67
2024/01/10 03:55:53;;;;;;;40.70;31.52;;;;;;;-1.47;100.00;96462.72;5050201;28;20033;-67
2024/01/10 03:58:19;;;;;;;39.42;30.08;;;;;;;-1.42;100.00;96472.91;5055406;28;20044;-67
2024/01/10 04:00:44;;;;;;;44.15;33.15;;;;;;;-1.47;100.00;96462.72;5047362;28;20032;-67
2024/01/10 04:03:09;;;;;;;40.72;30.73;;;;;;;-1.47;100.00;96457.56;5049425;28;20540;-67
2024/01/10 04:05:35;;;;;;;45.00;30.50;;;;;;;-1.45;100.00;96458.34;5039711;28;20092;-67
2024/01/10 04:08:00;;;;;;;44.00;32.45;;;;;;;-1.43;100.00;96450.56;5049995;28;20044;-67
2024/01/10 04:10:26;;;;;;;46.58;34.70;;;;;;;-1.50;100.00;96449.91;5038979;28;20096;-67
2024/01/10 04:12:51;;;;;;;43.00;32.72;;;;;;;-1.51;100.00;96449.06;5052524;28;21079;-67
2024/01/10 04:15:19;;;;;;;43.40;33.00;;;;;;;-1.48;100.00;96442.97;5055931;28;20032;-67
2024/01/10 04:17:45;;;;;;;46.50;34.33;;;;;;;-1.48;100.00;96441.19;5045130;28;20478;-67
2024/01/10 04:20:10;;;;;;;41.85;33.97;;;;;;;-1.36;100.00;96432.22;5053494;28;20031;-67
2024/01/10 04:22:36;;;;;;;43.20;31.98;;;;;;;-1.42;100.00;96429.00;5054517;28;20429;-67
2024/01/10 04:25:04;;;;;;;40.40;32.47;;;;;;;-1.46;100.00;96429.06;5045530;28;20063;-67
2024/01/10 04:27:30;;;;;;;45.53;32.55;;;;;;;-1.49;100.00;96431.75;5056533;28;20535;-67
2024/01/10 04:29:55;;;;;;;44.03;33.95;;;;;;;-1.51;100.00;96445.66;5050292;28;20017;-67
2024/01/10 04:32:21;;;;;;;43.42;33.58;;;;;;;-1.53;100.00;96444.84;5036993;28;20037;-67
2024/01/10 04:34:46;;;;;;;41.72;31.45;;;;;;;-1.52;100.00;96433.63;5039027;28;20040;-67
2024/01/10 04:37:12;;;;;;;47.13;32.30;;;;;;;-1.52;100.00;96434.44;5049124;28;20127;-68
2024/01/10 04:39:37;;;;;;;49.65;35.10;;;;;;;-1.53;100.00;96435.34;5055129;28;20044;-67
2024/01/10 04:42:03;;;;;;;45.05;33.38;;;;;;;-1.49;100.00;96436.09;5056583;28;20021;-67
2024/01/10 04:44:29;;;;;;;45.33;34.45;;;;;;;-1.48;100.00;96433.44;5055014;28;20402;-67
2024/01/10 04:46:54;;;;;;;44.97;33.42;;;;;;;-1.45;100.00;96438.50;5055925;28;20059;-67
2024/01/10 04:49:19;;;;;;;48.58;33.60;;;;;;;-1.47;100.00;96435.13;5047005;28;20028;-67
2024/01/10 04:51:46;;;;;;;43.10;33.05;;;;;;;-1.46;100.00;96442.00;5055158;28;20130;-68
2024/01/10 04:54:12;;;;;;;45.72;35.38;;;;;;;-1.40;100.00;96430.63;5055312;28;20031;-67
2024/01/10 04:56:37;;;;;;;42.63;33.55;;;;;;;-1.37;100.00;96432.28;5056065;28;20029;-68
2024/01/10 04:59:03;;;;;;;45.10;32.80;;;;;;;-1.34;100.00;96430.41;5055761;28;20020;-67
2024/01/10 05:01:28;;;;;;;47.90;33.53;;;;;;;-1.41;100.00;96431.53;5056393;28;20025;-67
2024/01/10 05:03:54;;;;;;;43.72;33.70;;;;;;;-1.38;100.00;96438.34;5051845;28;20391;-67
2024/01/10 05:06:20;;;;;;;48.53;34.65;;;;;;;-1.40;100.00;96433.22;5044340;28;20131;-68
2024/01/10 05:08:45;;;;;;;44.17;33.35;;;;;;;-1.43;100.00;96430.72;5048091;28;20040;-67
2024/01/10 05:11:11;;;;;;;46.28;32.05;;;;;;;-1.38;100.00;96422.84;5036980;28;20021;-68
2024/01/10 05:13:36;;;;;;;49.15;34.17;;;;;;;-1.42;100.00;96439.34;5046049;28;20112;-67
2024/01/10 05:16:02;;;;;;;49.75;33.33;;;;;;;-1.47;100.00;96435.13;5048762;28;20067;-67
2024/01/10 05:18:27;;;;;;;51.72;33.58;;;;;;;-1.35;100.00;96428.72;5036052;28;20082;-67
2024/01/10 05:20:53;;;;;;;51.20;35.28;;;;;;;-1.33;100.00;96421.78;5054793;28;20021;-67
2024/01/10 05:23:18;;;;;;;59.70;34.00;;;;;;;-1.30;100.00;96423.41;5042643;28;20029;-67
2024/01/10 05:25:43;;;;;;;49.72;34.55;;;;;;;-1.35;100.00;96425.31;5045063;28;20031;-68
2024/01/10 05:28:09;;;;;;;48.88;32.58;;;;;;;-1.43;100.00;96437.66;5055098;28;20037;-68
2024/01/10 05:30:35;;;;;;;48.47;32.97;;;;;;;-1.47;100.00;96440.31;5054010;28;20123;-67
2024/01/10 05:33:00;;;;;;;53.30;34.47;;;;;;;-1.49;100.00;96442.09;5055312;28;20043;-67
2024/01/10 05:35:25;;;;;;;48.85;32.90;;;;;;;-1.47;100.00;96439.47;5047100;28;20029;-67
2024/01/10 05:37:51;;;;;;;51.22;33.42;;;;;;;-1.42;100.00;96437.59;5055452;28;20035;-67
2024/01/10 05:40:18;;;;;;;53.10;35.55;;;;;;;-1.43;100.00;96425.56;5038720;28;20032;-68
2024/01/10 05:42:44;;;;;;;54.75;35.05;;;;;;;-1.41;100.00;96428.09;5037216;28;20117;-67
2024/01/10 05:45:09;;;;;;;55.95;36.83;;;;;;;-1.30;100.00;96418.25;5044189;28;20053;-67
2024/01/10 05:47:35;;;;;;;59.53;34.92;;;;;;;-1.31;100.00;96413.97;5036816;28;20053;-67
2024/01/10 05:50:01;;;;;;;53.53;32.67;;;;;;;-1.39;100.00;96423.72;5054209;28;20025;-67
2024/01/10 05:52:26;;;;;;;59.40;36.30;;;;;;;-1.43;100.00;96427.31;5043979;28;20033;-67
2024/01/10 05:54:53;;;;;;;53.10;34.35;;;;;;;-1.33;100.00;96423.53;5051334;28;20120;-68
2024/01/10 05:57:18;;;;;;;53.08;33.47;;;;;;;-1.39;100.00;96423.72;5054629;28;20043;-67
2024/01/10 05:59:44;;;;;;;53.40;36.08;;;;;;;-1.38;100.00;96413.31;5054863;28;20064;-67
2024/01/10 06:02:09;;;;;;;58.22;36.72;;;;;;;-1.29;100.00;96412.19;5054088;28;20021;-68
2024/01/10 06:04:34;;;;;;;59.38;36.75;;;;;;;-1.26;100.00;96401.75;5053796;28;20121;-68
2024/01/10 06:07:00;;;;;;;60.42;38.83;;;;;;;-1.32;100.00;96413.16;5053293;28;20478;-68
2024/01/10 06:09:26;;;;;;;58.95;37.53;;;;;;;-1.37;100.00;96415.03;5055190;28;20086;-68
2024/01/10 06:11:51;;;;;;;62.25;39.20;;;;;;;-1.41;100.00;96412.59;5050457;28;20021;-67
2024/01/10 06:14:17;;;;;;;57.97;37.47;;;;;;;-1.43;100.00;96433.31;5052887;28;20059;-67
2024/01/10 06:16:44;;;;;;;56.75;36.92;;;;;;;-1.41;100.00;96428.09;5042111;28;20028;-67
2024/01/10 06:19:13;;;;;;;60.88;36.63;;;;;;;-1.34;100.00;96421.84;5049379;28;20703;-68
2024/01/10 06:21:38;;;;;;;62.03;40.45;;;;;;;-1.38;100.00;96417.66;5049798;28;20033;-67
2024/01/10 06:24:04;;;;;;;63.45;39.05;;;;;;;-1.42;100.00;96429.84;5038515;28;20029;-68
2024/01/10 06:26:29;;;;;;;62.80;39.50;;;;;;;-1.42;100.00;96424.66;5053705;28;20033;-67
2024/01/10 06:28:55;;;;;;;74.40;47.95;;;;;;;-1.44;100.00;96423.88;5054260;28;20371;-67
2024/01/10 06:31:20;;;;;;;51.80;35.13;;;;;;;-1.42;100.00;96426.41;5053504;28;20028;-67
2024/01/10 06:33:46;;;;;;;53.45;35.88;;;;;;;-1.41;100.00;96428.09;5052637;28;20489;-67
2024/01/10 06:36:12;;;;;;;53.50;33.17;;;;;;;-1.41;100.00;96433.28;5054087;28;20029;-68
2024/01/10 06:38:40;;;;;;;50.00;31.60;;;;;;;-1.40;100.00;96429.78;5053812;28;20496;-67
2024/01/10 06:41:10;;;;;;;54.47;32.88;;;;;;;-1.42;100.00;96432.41;5052985;28;20035;-67
2024/01/10 06:43:38;;;;;;;48.90;32.30;;;;;;;-1.41;100.00;96433.28;5038746;28;20037;-67
2024/01/10 06:46:03;;;;;;;50.17;34.05;;;;;;;-1.36;100.00;96436.53;5036854;28;20111;-66
2024/01/10 06:48:29;;;;;;;60.60;39.70;;;;;;;-1.36;100.00;96432.22;5045052;28;20122;-67
2024/01/10 06:50:55;;;;;;;61.25;39.92;;;;;;;-1.35;100.00;96439.06;5044891;28;20060;-67
2024/01/10 06:53:21;;;;;;;51.00;35.35;;;;;;;-1.40;100.00;96447.88;5040926;28;20025;-67
2024/01/10 06:55:46;;;;;;;56.78;37.05;;;;;;;-1.39;100.00;96446.97;5035743;28;20039;-66
2024/01/10 06:58:12;;;;;;;49.78;35.67;;;;;;;-1.37;100.00;96445.19;5044456;28;20029;-67
2024/01/10 07:00:38;;;;;;;52.08;35.75;;;;;;;-1.37;100.00;96452.94;5053751;28;20100;-67
2024/01/10 07:03:04;;;;;;;53.05;36.75;;;;;;;-1.41;100.00;96447.03;5043170;28;20077;-67
2024/01/10 07:05:31;;;;;;;57.67;35.17;;;;;;;-1.38;100.00;96444.34;5037035;28;20041;-68
2024/01/10 07:08:02;;;;;;;60.42;38.42;;;;;;;-1.29;100.00;96445.78;5044676;28;20024;-67
2024/01/10 07:10:28;;;;;;;57.90;37.90;;;;;;;-1.30;100.00;96444.09;5045492;28;20029;-67
2024/01/10 07:12:57;;;;;;;58.63;39.03;;;;;;;-1.32;100.00;96443.28;5048293;28;20045;-67
2024/01/10 07:15:22;;;;;;;70.60;44.03;;;;;;;-1.32;100.00;96449.31;5049666;28;20028;-67
2024/01/10 07:17:48;;;;;;;63.35;39.95;;;;;;;-1.34;100.00;96445.09;5047836;28;20017;-67
2024/01/10 07:20:14;;;;;;;64.43;40.03;;;;;;;-1.40;100.00;96450.47;5043453;28;20075;-68
2024/01/10 07:22:41;;;;;;;55.97;37.88;;;;;;;-1.39;100.00;96455.56;5037883;28;20495;-69
2024/01/10 07:25:13;;;;;;;62.88;41.53;;;;;;;-1.38;100.00;96453.84;5042990;28;20092;-67
2024/01/10 07:27:42;;;;;;;71.55;41.45;;;;;;;-1.34;100.00;96460.59;5045045;28;20130;-68
2024/01/10 07:30:15;;;;;;;59.05;38.50;;;;;;;-1.36;100.00;96465.78;5043317;28;20447;-68
2024/01/10 07:32:43;;;;;;;55.63;36.85;;;;;;;-1.36;100.00;96473.53;5049331;28;20033;-69
2024/01/10 07:35:10;;;;;;;53.35;36.20;;;;;;;-1.33;100.00;96477.78;5039177;28;20146;-69
2024/01/10 07:37:41;;;;;;;66.85;44.25;;;;;;;-1.31;100.00;96475.97;5053244;28;20390;-69
2024/01/10 07:40:08;;;;;;;61.90;41.47;;;;;;;-1.34;100.00;96489.00;5049811;28;20032;-68
2024/01/10 07:42:34;;;;;;;57.42;41.00;;;;;;;-1.39;100.00;96488.31;5033541;28;20036;-69
2024/01/10 07:45:04;;;;;;;58.72;40.42;;;;;;;-1.38;100.00;96492.59;5047121;28;20470;-67
2024/01/10 07:47:34;;;;;;;54.65;36.10;;;;;;;-1.34;100.00;96484.66;5045285;28;20057;-67
2024/01/10 07:49:59;;;;;;;48.85;35.05;;;;;;;-1.25;100.00;96490.44;5047293;28;20029;-67
2024/01/10 07:52:24;;;;;;;52.53;34.67;;;;;;;-1.23;100.00;96493.81;5052568;28;20036;-67
2024/01/10 07:54:50;;;;;;;49.15;34.35;;;;;;;-1.21;100.00;96494.63;5043992;28;20619;-67
2024/01/10 07:57:18;;;;;;;47.40;33.63;;;;;;;-1.20;100.00;96502.34;5053856;28;20032;-67
2024/01/10 07:59:44;;;;;;;50.03;33.40;;;;;;;-1.15;100.00;96507.34;5056134;28;20035;-67
2024/01/10 08:02:10;;;;;;;61.00;35.28;;;;;;;-1.21;100.00;96516.16;5043303;28;20064;-67
2024/01/10 08:04:35;;;;;;;48.97;33.92;;;;;;;-1.21;100.00;96510.97;5038765;28;20042;-67
2024/01/10 08:07:01;;;;;;;54.47;35.83;;;;;;;-1.19;100.00;96511.78;5044309;28;20055;-67
2024/01/10 08:09:26;;;;;;;47.50;33.72;;;;;;;-1.16;100.00;96515.97;5048067;28;20045;-67
2024/01/10 08:11:52;;;;;;;49.35;33.63;;;;;;;-1.18;100.00;96516.06;5037913;28;21660;-67
2024/01/10 08:14:17;;;;;;;50.63;33.58;;;;;;;-1.15;100.00;96522.84;5048405;28;20025;-67
2024/01/10 08:16:42;;;;;;;56.28;34.05;;;;;;;-1.12;100.00;96527.91;5042879;28;20091;-67
2024/01/10 08:19:08;;;;;;;46.47;32.88;;;;;;;-1.10;100.00;96531.31;5049869;28;20032;-68
2024/01/10 08:21:34;;;;;;;49.55;34.33;;;;;;;-1.06;100.00;96525.16;5056827;28;20033;-67
2024/01/10 08:24:02;;;;;;;52.05;36.50;;;;;;;-1.03;100.00;96531.94;5056841;28;20112;-68
2024/01/10 08:26:27;;;;;;;51.45;36.22;;;;;;;-1.04;100.00;96527.66;5052875;28;20025;-67
2024/01/10 08:28:53;;;;;;;51.90;39.22;;;;;;;-1.03;100.00;96526.75;5051118;28;20508;-67
2024/01/10 08:31:18;;;;;;;51.50;34.10;;;;;;;-0.93;100.00;96527.31;5047806;28;20120;-67
2024/01/10 08:33:44;;;;;;;48.67;30.92;;;;;;;-0.85;100.00;96516.72;5054505;28;20025;-67
2024/01/10 08:36:10;;;;;;;49.90;33.53;;;;;;;-0.84;100.00;96524.44;5053160;28;20036;-67
2024/01/10 08:38:36;;;;;;;49.13;35.80;;;;;;;-0.83;100.00;96527.84;5050803;28;20033;-67
2024/01/10 08:41:03;;;;;;;52.10;34.75;;;;;;;-0.73;100.00;96521.50;5044085;28;20026;-67
2024/01/10 08:43:28;;;;;;;47.25;32.20;;;;;;;-0.69;100.00;96530.81;5054845;28;20029;-67
2024/01/10 08:45:54;;;;;;;47.20;30.23;;;;;;;-0.76;100.00;96531.94;5044730;28;20029;-68
2024/01/10 08:48:19;;;;;;;47.63;32.30;;;;;;;-0.77;100.00;96546.59;5046331;28;20060;-67
2024/01/10 08:50:44;;;;;;;48.75;33.15;;;;;;;-0.69;100.00;96542.91;5049628;28;20024;-68
2024/01/10 08:53:10;;;;;;;52.47;34.20;;;;;;;-0.73;100.00;96555.09;5052582;28;20470;-67
2024/01/10 08:55:37;;;;;;;53.30;32.55;;;;;;;-0.74;100.00;96559.41;5055427;28;20035;-67
2024/01/10 08:58:03;;;;;;;52.53;35.45;;;;;;;-0.74;100.00;96556.00;5051334;28;20039;-67
2024/01/10 09:00:28;;;;;;;57.50;34.97;;;;;;;-0.74;100.00;96556.00;5051658;28;20099;-68
2024/01/10 09:02:55;;;;;;;51.85;32.53;;;;;;;-0.66;100.00;96561.75;5055116;28;20108;-67
2024/01/10 09:05:21;;;;;;;49.60;33.95;;;;;;;-0.61;100.00;96553.84;5048232;28;20033;-67
2024/01/10 09:07:47;;;;;;;47.78;31.58;;;;;;;-0.59;100.00;96552.88;5053234;28;20029;-67
2024/01/10 09:10:13;;;;;;;45.53;31.95;;;;;;;-0.47;100.00;96555.97;5044383;28;20631;-67
2024/01/10 09:12:38;;;;;;;48.40;33.35;;;;;;;-0.34;100.00;96564.97;5050765;28;20024;-67
2024/01/10 09:15:04;;;;;;;49.22;32.70;;;;;;;-0.30;100.00;96556.22;5044265;28;20067;-67
2024/01/10 09:17:29;;;;;;;61.63;42.47;;;;;;;-0.28;100.00;96560.50;5042804;28;20036;-68
2024/01/10 09:19:55;;;;;;;52.20;34.17;;;;;;;-0.12;100.00;96555.63;5053556;28;20024;-67
2024/01/10 09:22:20;;;;;;;48.25;32.97;;;;;;;0.03;100.00;96549.91;5051049;28;20036;-68
2024/01/10 09:24:45;;;;;;;52.60;37.08;;;;;;;0.06;100.00;96549.78;5046170;28;20686;-68
2024/01/10 09:27:11;;;;;;;51.45;34.78;;;;;;;0.14;100.00;96552.09;5066360;28;20108;-67
2024/01/10 09:29:37;;;;;;;59.33;38.25;;;;;;;0.17;100.00;96557.16;5053298;28;20525;-67
2024/01/10 09:32:03;;;;;;;50.97;36.70;;;;;;;0.21;100.00;96563.91;5054124;28;20503;-67
2024/01/10 09:34:28;;;;;;;52.00;35.83;;;;;;;0.31;100.00;96563.53;5053151;28;20067;-67
2024/01/10 09:36:54;;;;;;;51.30;34.42;;;;;;;0.15;100.00;96558.97;5048395;28;20104;-67
2024/01/10 09:39:19;;;;;;;45.72;34.00;;;;;;;0.22;100.00;96556.97;5050818;28;20074;-67
2024/01/10 09:41:50;;;;;;;45.58;34.08;;;;;;;0.21;100.00;96563.03;5052959;28;20017;-67
2024/01/10 09:44:17;;;;;;;50.38;35.45;;;;;;;0.20;100.00;96567.38;5050060;28;20036;-67
2024/01/10 09:46:47;;;;;;;54.58;37.67;;;;;;;0.31;100.00;96553.19;5052938;28;20602;-67
2024/01/10 09:49:13;;;;;;;47.15;34.63;;;;;;;0.33;100.00;96556.56;5051621;28;20419;-67
2024/01/10 09:51:38;;;;;;;45.00;35.35;;;;;;;0.23;100.00;96562.09;5053389;28;20071;-67
2024/01/10 09:54:04;;;;;;;34.95;28.08;;;;;;;0.35;100.00;96558.19;5053328;28;20020;-67
2024/01/10 09:56:33;;;;;;;37.80;29.95;;;;;;;0.32;100.00;96570.41;5054477;28;20033;-67
2024/01/10 09:59:01;;;;;;;40.58;29.30;;;;;;;0.40;100.00;96565.81;5053032;28;20051;-67
2024/01/10 10:01:27;;;;;;;37.15;29.73;;;;;;;0.43;100.00;96563.09;5054101;28;20028;-68
2024/01/10 10:03:55;;;;;;;38.70;29.67;;;;;;;0.61;100.00;96555.53;5044154;28;20090;-67
2024/01/10 10:06:20;;;;;;;36.17;28.45;;;;;;;0.60;100.00;96557.25;5038851;28;20121;-68
2024/01/10 10:08:46;;;;;;;34.90;29.02;;;;;;;0.64;100.00;96547.63;5053505;28;20073;-68
2024/01/10 10:11:14;;;;;;;36.90;28.52;;;;;;;0.67;100.00;96556.13;5047008;28;20033;-68
2024/01/10 10:13:41;;;;;;;34.30;26.75;;;;;;;0.65;100.00;96555.31;5046729;28;20100;-68
2024/01/10 10:16:09;;;;;;;34.92;28.48;;;;;;;0.62;100.00;96555.44;5046081;28;20856;-68
2024/01/10 10:18:35;;;;;;;38.20;29.98;;;;;;;0.55;100.00;96554.88;5051864;28;20040;-68
2024/01/10 10:21:11;;;;;;;37.38;29.48;;;;;;;0.61;100.00;96558.13;5051084;28;20029;-68
2024/01/10 10:23:42;;;;;;;38.13;30.48;;;;;;;0.60;100.00;96559.03;5047908;28;20048;-68
2024/01/10 10:26:26;;;;;;;36.83;29.88;;;;;;;0.59;100.00;96559.94;5049526;28;20108;-68
2024/01/10 10:28:52;;;;;;;41.03;31.17;;;;;;;0.60;100.00;96549.50;5046330;28;20020;-68
2024/01/10 10:31:18;;;;;;;39.97;28.30;;;;;;;0.62;100.00;96546.84;5052510;28;20082;-68
2024/01/10 10:33:45;;;;;;;39.28;30.92;;;;;;;0.48;100.00;96549.97;5050543;28;20021;-68
2024/01/10 10:36:10;;;;;;;41.30;29.58;;;;;;;0.47;100.00;96549.13;5050136;28;20037;-68
2024/01/10 10:38:39;;;;;;;38.60;29.50;;;;;;;0.41;100.00;96542.41;5051134;28;20040;-68
2024/01/10 10:41:15;;;;;;;42.55;31.00;;;;;;;0.45;100.00;96545.75;5050420;28;20112;-68
2024/01/10 10:43:40;;;;;;;;;;;;;;;0.45;100.00;96539.72;5044610;28;20037;-68
2024/01/10 10:46:07;;;;;;;;;;;;;;;0.53;100.00;96540.28;5049185;28;19912;-68
2024/01/10 10:48:37;;;;;;;45.10;28.08;;;;;;;0.57;100.00;96534.91;5050663;28;19916;-68
2024/01/10 10:51:10;;;;;;;42.80;29.95;;;;;;;0.52;100.00;96536.00;5053379;28;20162;-68
2024/01/10 10:53:38;;;;;;;44.08;31.23;;;;;;;0.40;100.00;96532.97;5049571;28;20025;-68
2024/01/10 10:56:05;;;;;;;44.78;30.95;;;;;;;0.55;100.00;96541.91;5050623;28;20075;-68
2024/01/10 10:58:37;;;;;;;43.53;29.90;;;;;;;0.52;100.00;96536.81;5044651;28;20032;-68
2024/01/10 11:01:07;;;;;;;46.78;32.22;;;;;;;0.62;100.00;96537.31;5053660;28;20048;-68
2024/01/10 11:03:39;;;;;;;39.40;30.10;;;;;;;0.72;100.00;96542.97;5049477;28;20110;-68
2024/01/10 11:06:06;;;;;;;40.40;31.30;;;;;;;0.75;100.00;96540.25;5044221;28;20026;-68